sensor_id;sensor_type;location;lat;lon;timestamp;temperature;humidity
37844;DHT22;63793;57.632;18.292;2023-07-16T00:02:06;16.90;99.90
37844;DHT22;63793;57.632;18.292;2023-07-16T00:04:33;16.90;99.90
37844;DHT22;63793;57.632;18.292;2023-07-16T00:07:00;17.00;99.90
37844;DHT22;63793;57.632;18.292;2023-07-16T00:09:28;17.00;99.90
37844;DHT22;63793;57.632;18.292;2023-07-16T00:11:56;17.10;99.90
37844;DHT22;63793;57.632;18.292;2023-07-16T00:14:23;17.10;99.90
37844;DHT22;63793;57.632;18.292;2023-07-16T00:16:50;17.20;99.90
37844;DHT22;63793;57.632;18.292;2023-07-16T00:19:17;17.20;99.90
37844;DHT22;63793;57.632;18.292;2023-07-16T00:21:44;17.20;99.90
37844;DHT22;63793;57.632;18.292;2023-07-16T00:24:11;17.30;99.90
37844;DHT22;63793;57.632;18.292;2023-07-16T00:26:38;17.30;99.90
37844;DHT22;63793;57.632;18.292;2023-07-16T00:29:05;17.40;99.90
37844;DHT22;63793;57.632;18.292;2023-07-16T00:31:32;17.40;99.90
37844;DHT22;63793;57.632;18.292;2023-07-16T00:33:58;17.40;99.90
37844;DHT22;63793;57.632;18.292;2023-07-16T00:36:26;17.40;99.90
37844;DHT22;63793;57.632;18.292;2023-07-16T00:38:53;17.40;99.90
37844;DHT22;63793;57.632;18.292;2023-07-16T00:41:20;17.40;99.90
37844;DHT22;63793;57.632;18.292;2023-07-16T00:43:47;17.40;99.90
37844;DHT22;63793;57.632;18.292;2023-07-16T00:46:14;17.40;99.90
37844;DHT22;63793;57.632;18.292;2023-07-16T00:48:43;17.40;99.90
37844;DHT22;63793;57.632;18.292;2023-07-16T00:51:10;17.40;99.90
37844;DHT22;63793;57.632;18.292;2023-07-16T00:53:37;17.50;99.90
37844;DHT22;63793;57.632;18.292;2023-07-16T00:56:05;17.60;99.90
37844;DHT22;63793;57.632;18.292;2023-07-16T00:58:32;17.70;99.90
37844;DHT22;63793;57.632;18.292;2023-07-16T01:00:59;17.80;99.90
37844;DHT22;63793;57.632;18.292;2023-07-16T01:03:26;17.80;99.90
37844;DHT22;63793;57.632;18.292;2023-07-16T01:11:07;18.00;99.90
37844;DHT22;63793;57.632;18.292;2023-07-16T01:13:34;18.10;99.90
37844;DHT22;63793;57.632;18.292;2023-07-16T01:16:02;18.10;99.90
37844;DHT22;63793;57.632;18.292;2023-07-16T01:18:29;18.20;99.90
37844;DHT22;63793;57.632;18.292;2023-07-16T01:20:56;18.20;99.90
37844;DHT22;63793;57.632;18.292;2023-07-16T01:23:47;18.30;99.90
37844;DHT22;63793;57.632;18.292;2023-07-16T01:26:32;18.30;99.90
37844;DHT22;63793;57.632;18.292;2023-07-16T01:31:56;18.50;99.90
37844;DHT22;63793;57.632;18.292;2023-07-16T01:34:25;18.50;99.90
37844;DHT22;63793;57.632;18.292;2023-07-16T01:36:53;18.50;99.90
37844;DHT22;63793;57.632;18.292;2023-07-16T01:39:21;18.60;99.90
37844;DHT22;63793;57.632;18.292;2023-07-16T01:41:48;18.60;99.90
37844;DHT22;63793;57.632;18.292;2023-07-16T01:44:14;18.70;99.90
37844;DHT22;63793;57.632;18.292;2023-07-16T01:46:41;18.70;99.90
37844;DHT22;63793;57.632;18.292;2023-07-16T01:49:09;18.80;99.90
37844;DHT22;63793;57.632;18.292;2023-07-16T01:51:37;18.90;99.90
37844;DHT22;63793;57.632;18.292;2023-07-16T01:54:04;19.00;99.90
37844;DHT22;63793;57.632;18.292;2023-07-16T01:56:31;19.00;99.90
37844;DHT22;63793;57.632;18.292;2023-07-16T01:58:58;19.00;99.90
37844;DHT22;63793;57.632;18.292;2023-07-16T02:01:25;19.10;99.90
37844;DHT22;63793;57.632;18.292;2023-07-16T02:03:52;19.10;99.90
37844;DHT22;63793;57.632;18.292;2023-07-16T02:06:19;19.20;99.90
37844;DHT22;63793;57.632;18.292;2023-07-16T02:08:47;19.20;99.90
37844;DHT22;63793;57.632;18.292;2023-07-16T02:11:14;19.30;99.90
37844;DHT22;63793;57.632;18.292;2023-07-16T02:13:41;19.30;99.90
37844;DHT22;63793;57.632;18.292;2023-07-16T02:16:08;19.30;99.90
37844;DHT22;63793;57.632;18.292;2023-07-16T02:18:35;19.30;99.90
37844;DHT22;63793;57.632;18.292;2023-07-16T02:21:02;19.40;99.90
37844;DHT22;63793;57.632;18.292;2023-07-16T02:23:30;19.40;99.90
37844;DHT22;63793;57.632;18.292;2023-07-16T02:25:57;19.40;99.90
37844;DHT22;63793;57.632;18.292;2023-07-16T02:28:24;19.50;99.90
37844;DHT22;63793;57.632;18.292;2023-07-16T02:30:52;19.50;99.90
37844;DHT22;63793;57.632;18.292;2023-07-16T02:33:19;19.60;99.90
37844;DHT22;63793;57.632;18.292;2023-07-16T02:35:47;19.60;99.90
37844;DHT22;63793;57.632;18.292;2023-07-16T02:38:15;19.60;99.90
37844;DHT22;63793;57.632;18.292;2023-07-16T02:40:43;19.70;99.90
37844;DHT22;63793;57.632;18.292;2023-07-16T02:43:11;19.70;99.90
37844;DHT22;63793;57.632;18.292;2023-07-16T02:45:38;19.80;99.90
37844;DHT22;63793;57.632;18.292;2023-07-16T02:48:06;19.80;99.90
37844;DHT22;63793;57.632;18.292;2023-07-16T02:50:39;19.80;99.90
37844;DHT22;63793;57.632;18.292;2023-07-16T02:53:06;19.80;99.90
37844;DHT22;63793;57.632;18.292;2023-07-16T02:55:37;19.90;99.90
37844;DHT22;63793;57.632;18.292;2023-07-16T02:58:04;19.90;99.90
37844;DHT22;63793;57.632;18.292;2023-07-16T03:00:31;19.90;99.90
37844;DHT22;63793;57.632;18.292;2023-07-16T03:02:59;20.00;99.90
37844;DHT22;63793;57.632;18.292;2023-07-16T03:05:27;20.00;99.90
37844;DHT22;63793;57.632;18.292;2023-07-16T03:07:56;20.00;99.90
37844;DHT22;63793;57.632;18.292;2023-07-16T03:10:24;20.00;99.90
37844;DHT22;63793;57.632;18.292;2023-07-16T03:12:53;20.00;99.90
37844;DHT22;63793;57.632;18.292;2023-07-16T03:15:21;20.10;99.90
37844;DHT22;63793;57.632;18.292;2023-07-16T03:17:48;20.10;99.90
37844;DHT22;63793;57.632;18.292;2023-07-16T03:20:15;20.10;99.90
37844;DHT22;63793;57.632;18.292;2023-07-16T03:22:42;20.10;99.90
37844;DHT22;63793;57.632;18.292;2023-07-16T03:25:09;20.10;99.90
37844;DHT22;63793;57.632;18.292;2023-07-16T03:27:36;20.20;99.90
37844;DHT22;63793;57.632;18.292;2023-07-16T03:30:03;20.20;99.90
37844;DHT22;63793;57.632;18.292;2023-07-16T03:32:31;20.20;99.90
37844;DHT22;63793;57.632;18.292;2023-07-16T03:35:17;20.20;99.90
37844;DHT22;63793;57.632;18.292;2023-07-16T03:37:44;20.30;99.90
37844;DHT22;63793;57.632;18.292;2023-07-16T03:40:23;20.30;99.90
37844;DHT22;63793;57.632;18.292;2023-07-16T03:42:51;20.30;99.90
37844;DHT22;63793;57.632;18.292;2023-07-16T03:45:18;20.40;99.90
37844;DHT22;63793;57.632;18.292;2023-07-16T03:47:45;20.40;99.90
37844;DHT22;63793;57.632;18.292;2023-07-16T03:50:12;20.40;99.90
37844;DHT22;63793;57.632;18.292;2023-07-16T03:52:39;20.40;99.90
37844;DHT22;63793;57.632;18.292;2023-07-16T03:55:06;20.40;99.90
37844;DHT22;63793;57.632;18.292;2023-07-16T03:57:33;20.50;99.90
37844;DHT22;63793;57.632;18.292;2023-07-16T04:00:02;20.50;99.90
37844;DHT22;63793;57.632;18.292;2023-07-16T04:02:40;20.50;99.90
37844;DHT22;63793;57.632;18.292;2023-07-16T04:05:11;20.50;99.90
37844;DHT22;63793;57.632;18.292;2023-07-16T04:07:38;20.50;99.90
37844;DHT22;63793;57.632;18.292;2023-07-16T04:10:05;20.50;99.90
37844;DHT22;63793;57.632;18.292;2023-07-16T04:12:32;20.60;99.90
37844;DHT22;63793;57.632;18.292;2023-07-16T04:15:00;20.60;99.90
37844;DHT22;63793;57.632;18.292;2023-07-16T04:17:27;20.60;99.90
37844;DHT22;63793;57.632;18.292;2023-07-16T04:19:53;20.60;99.90
37844;DHT22;63793;57.632;18.292;2023-07-16T04:22:20;20.70;99.90
37844;DHT22;63793;57.632;18.292;2023-07-16T04:24:47;20.70;99.90
37844;DHT22;63793;57.632;18.292;2023-07-16T04:27:14;20.70;99.90
37844;DHT22;63793;57.632;18.292;2023-07-16T04:29:41;20.70;99.90
37844;DHT22;63793;57.632;18.292;2023-07-16T04:32:08;20.80;99.90
37844;DHT22;63793;57.632;18.292;2023-07-16T04:34:35;20.80;99.90
37844;DHT22;63793;57.632;18.292;2023-07-16T04:37:02;20.80;99.90
37844;DHT22;63793;57.632;18.292;2023-07-16T04:39:29;20.80;99.90
37844;DHT22;63793;57.632;18.292;2023-07-16T04:41:56;20.90;99.90
37844;DHT22;63793;57.632;18.292;2023-07-16T04:44:23;21.00;99.90
37844;DHT22;63793;57.632;18.292;2023-07-16T04:46:50;21.10;99.90
37844;DHT22;63793;57.632;18.292;2023-07-16T04:49:17;21.20;99.90
37844;DHT22;63793;57.632;18.292;2023-07-16T04:51:44;21.30;99.90
37844;DHT22;63793;57.632;18.292;2023-07-16T04:54:10;21.30;99.90
37844;DHT22;63793;57.632;18.292;2023-07-16T04:56:37;21.40;99.90
37844;DHT22;63793;57.632;18.292;2023-07-16T04:59:04;21.40;99.90
37844;DHT22;63793;57.632;18.292;2023-07-16T05:01:31;21.40;99.90
37844;DHT22;63793;57.632;18.292;2023-07-16T05:03:58;21.40;99.90
37844;DHT22;63793;57.632;18.292;2023-07-16T05:06:25;21.40;99.90
37844;DHT22;63793;57.632;18.292;2023-07-16T05:08:52;21.40;99.90
37844;DHT22;63793;57.632;18.292;2023-07-16T05:11:19;21.50;99.90
37844;DHT22;63793;57.632;18.292;2023-07-16T05:13:46;21.50;99.90
37844;DHT22;63793;57.632;18.292;2023-07-16T05:16:13;21.50;99.90
37844;DHT22;63793;57.632;18.292;2023-07-16T05:18:40;21.60;99.90
37844;DHT22;63793;57.632;18.292;2023-07-16T05:21:07;21.60;99.90
37844;DHT22;63793;57.632;18.292;2023-07-16T05:23:34;21.60;99.90
37844;DHT22;63793;57.632;18.292;2023-07-16T05:26:01;21.70;99.90
37844;DHT22;63793;57.632;18.292;2023-07-16T05:28:27;21.90;99.90
37844;DHT22;63793;57.632;18.292;2023-07-16T05:30:59;22.00;99.90
37844;DHT22;63793;57.632;18.292;2023-07-16T05:33:26;22.10;99.90
37844;DHT22;63793;57.632;18.292;2023-07-16T05:35:52;22.20;99.90
37844;DHT22;63793;57.632;18.292;2023-07-16T05:38:19;22.30;99.90
37844;DHT22;63793;57.632;18.292;2023-07-16T05:40:46;22.30;99.90
37844;DHT22;63793;57.632;18.292;2023-07-16T05:43:13;22.40;99.90
37844;DHT22;63793;57.632;18.292;2023-07-16T05:45:41;22.40;99.90
37844;DHT22;63793;57.632;18.292;2023-07-16T05:48:08;22.50;99.90
37844;DHT22;63793;57.632;18.292;2023-07-16T05:50:35;22.60;99.90
37844;DHT22;63793;57.632;18.292;2023-07-16T05:53:02;22.60;99.90
37844;DHT22;63793;57.632;18.292;2023-07-16T05:55:29;22.70;99.90
37844;DHT22;63793;57.632;18.292;2023-07-16T05:57:56;22.80;99.90
37844;DHT22;63793;57.632;18.292;2023-07-16T06:00:23;22.80;99.90
37844;DHT22;63793;57.632;18.292;2023-07-16T06:02:50;22.90;99.90
37844;DHT22;63793;57.632;18.292;2023-07-16T06:05:18;22.90;99.90
37844;DHT22;63793;57.632;18.292;2023-07-16T06:07:44;22.90;99.90
37844;DHT22;63793;57.632;18.292;2023-07-16T06:10:11;22.90;99.90
37844;DHT22;63793;57.632;18.292;2023-07-16T06:12:38;23.00;99.90
37844;DHT22;63793;57.632;18.292;2023-07-16T06:15:07;23.10;99.90
37844;DHT22;63793;57.632;18.292;2023-07-16T06:17:34;23.10;99.90
37844;DHT22;63793;57.632;18.292;2023-07-16T06:20:02;23.10;99.90
37844;DHT22;63793;57.632;18.292;2023-07-16T06:22:29;23.00;99.90
37844;DHT22;63793;57.632;18.292;2023-07-16T06:24:56;22.90;99.90
37844;DHT22;63793;57.632;18.292;2023-07-16T06:27:23;23.00;99.90
37844;DHT22;63793;57.632;18.292;2023-07-16T06:29:49;23.00;99.90
37844;DHT22;63793;57.632;18.292;2023-07-16T06:32:17;23.10;99.90
37844;DHT22;63793;57.632;18.292;2023-07-16T06:34:43;23.10;99.90
37844;DHT22;63793;57.632;18.292;2023-07-16T06:37:10;23.10;99.90
37844;DHT22;63793;57.632;18.292;2023-07-16T06:39:37;23.20;99.90
37844;DHT22;63793;57.632;18.292;2023-07-16T06:42:05;23.40;99.90
37844;DHT22;63793;57.632;18.292;2023-07-16T06:44:32;23.40;99.90
37844;DHT22;63793;57.632;18.292;2023-07-16T06:46:59;23.50;99.90
37844;DHT22;63793;57.632;18.292;2023-07-16T06:49:26;23.60;99.90
37844;DHT22;63793;57.632;18.292;2023-07-16T06:51:53;23.60;99.90
37844;DHT22;63793;57.632;18.292;2023-07-16T06:54:20;23.60;99.90
37844;DHT22;63793;57.632;18.292;2023-07-16T06:56:47;23.60;99.90
37844;DHT22;63793;57.632;18.292;2023-07-16T06:59:14;23.50;99.90
37844;DHT22;63793;57.632;18.292;2023-07-16T07:01:41;23.50;99.90
37844;DHT22;63793;57.632;18.292;2023-07-16T07:04:07;23.50;99.90
37844;DHT22;63793;57.632;18.292;2023-07-16T07:06:34;23.30;99.90
37844;DHT22;63793;57.632;18.292;2023-07-16T07:09:01;23.20;99.90
37844;DHT22;63793;57.632;18.292;2023-07-16T07:11:28;23.10;99.90
37844;DHT22;63793;57.632;18.292;2023-07-16T07:13:55;23.10;99.90
37844;DHT22;63793;57.632;18.292;2023-07-16T07:16:24;22.90;99.90
37844;DHT22;63793;57.632;18.292;2023-07-16T07:18:50;22.80;99.90
37844;DHT22;63793;57.632;18.292;2023-07-16T07:21:17;22.70;99.90
37844;DHT22;63793;57.632;18.292;2023-07-16T07:23:45;22.60;99.90
37844;DHT22;63793;57.632;18.292;2023-07-16T07:26:11;22.60;99.90
37844;DHT22;63793;57.632;18.292;2023-07-16T07:28:38;22.40;99.90
37844;DHT22;63793;57.632;18.292;2023-07-16T07:31:05;22.40;99.90
37844;DHT22;63793;57.632;18.292;2023-07-16T07:33:32;22.30;99.90
37844;DHT22;63793;57.632;18.292;2023-07-16T07:35:59;22.30;99.90
37844;DHT22;63793;57.632;18.292;2023-07-16T07:38:26;22.30;99.90
37844;DHT22;63793;57.632;18.292;2023-07-16T07:40:53;22.20;99.90
37844;DHT22;63793;57.632;18.292;2023-07-16T07:43:20;22.10;99.90
37844;DHT22;63793;57.632;18.292;2023-07-16T07:45:46;22.10;99.90
37844;DHT22;63793;57.632;18.292;2023-07-16T07:48:13;22.10;99.90
37844;DHT22;63793;57.632;18.292;2023-07-16T07:50:40;22.00;99.90
37844;DHT22;63793;57.632;18.292;2023-07-16T07:53:07;22.10;99.90
37844;DHT22;63793;57.632;18.292;2023-07-16T07:55:34;22.10;99.90
37844;DHT22;63793;57.632;18.292;2023-07-16T07:58:04;22.10;99.90
37844;DHT22;63793;57.632;18.292;2023-07-16T08:00:31;22.10;99.90
37844;DHT22;63793;57.632;18.292;2023-07-16T08:02:58;22.20;99.90
37844;DHT22;63793;57.632;18.292;2023-07-16T08:05:25;22.20;99.90
37844;DHT22;63793;57.632;18.292;2023-07-16T08:07:52;22.20;99.90
37844;DHT22;63793;57.632;18.292;2023-07-16T08:10:20;22.20;99.90
37844;DHT22;63793;57.632;18.292;2023-07-16T08:12:46;22.40;99.90
37844;DHT22;63793;57.632;18.292;2023-07-16T08:15:14;22.50;99.90
37844;DHT22;63793;57.632;18.292;2023-07-16T08:17:45;22.50;99.90
37844;DHT22;63793;57.632;18.292;2023-07-16T08:20:12;22.40;99.90
37844;DHT22;63793;57.632;18.292;2023-07-16T08:22:39;22.30;99.90
37844;DHT22;63793;57.632;18.292;2023-07-16T08:25:07;22.20;99.90
37844;DHT22;63793;57.632;18.292;2023-07-16T08:27:34;22.10;99.90
37844;DHT22;63793;57.632;18.292;2023-07-16T08:30:01;22.00;99.90
37844;DHT22;63793;57.632;18.292;2023-07-16T08:32:29;22.00;99.90
37844;DHT22;63793;57.632;18.292;2023-07-16T08:34:56;22.00;99.90
37844;DHT22;63793;57.632;18.292;2023-07-16T08:37:22;22.00;99.90
37844;DHT22;63793;57.632;18.292;2023-07-16T08:39:52;21.90;99.90
37844;DHT22;63793;57.632;18.292;2023-07-16T08:42:22;21.90;99.90
37844;DHT22;63793;57.632;18.292;2023-07-16T08:44:50;21.80;99.90
37844;DHT22;63793;57.632;18.292;2023-07-16T08:47:17;21.70;99.90
37844;DHT22;63793;57.632;18.292;2023-07-16T08:49:55;21.70;99.90
37844;DHT22;63793;57.632;18.292;2023-07-16T08:52:23;21.50;99.90
37844;DHT22;63793;57.632;18.292;2023-07-16T08:54:50;21.40;99.90
37844;DHT22;63793;57.632;18.292;2023-07-16T08:57:18;21.40;99.90
37844;DHT22;63793;57.632;18.292;2023-07-16T08:59:48;21.40;99.90
37844;DHT22;63793;57.632;18.292;2023-07-16T09:02:17;21.30;99.90
37844;DHT22;63793;57.632;18.292;2023-07-16T09:04:49;21.30;99.90
37844;DHT22;63793;57.632;18.292;2023-07-16T09:07:17;21.40;99.90
37844;DHT22;63793;57.632;18.292;2023-07-16T09:09:57;21.30;99.90
37844;DHT22;63793;57.632;18.292;2023-07-16T09:12:27;21.20;99.90
37844;DHT22;63793;57.632;18.292;2023-07-16T09:14:55;21.10;99.90
37844;DHT22;63793;57.632;18.292;2023-07-16T09:17:23;21.00;99.90
37844;DHT22;63793;57.632;18.292;2023-07-16T09:19:51;21.00;99.90
37844;DHT22;63793;57.632;18.292;2023-07-16T09:22:19;20.90;99.90
37844;DHT22;63793;57.632;18.292;2023-07-16T09:24:46;20.80;99.90
37844;DHT22;63793;57.632;18.292;2023-07-16T09:27:14;20.70;99.90
37844;DHT22;63793;57.632;18.292;2023-07-16T09:29:41;20.50;99.90
37844;DHT22;63793;57.632;18.292;2023-07-16T09:32:08;20.30;99.90
37844;DHT22;63793;57.632;18.292;2023-07-16T09:34:35;20.10;99.90
37844;DHT22;63793;57.632;18.292;2023-07-16T09:37:03;20.00;99.90
37844;DHT22;63793;57.632;18.292;2023-07-16T09:39:31;19.90;99.90
37844;DHT22;63793;57.632;18.292;2023-07-16T09:41:59;19.70;99.90
37844;DHT22;63793;57.632;18.292;2023-07-16T09:44:26;19.60;99.90
37844;DHT22;63793;57.632;18.292;2023-07-16T09:46:53;19.50;99.90
37844;DHT22;63793;57.632;18.292;2023-07-16T09:49:20;19.30;99.90
37844;DHT22;63793;57.632;18.292;2023-07-16T09:51:48;19.30;99.90
37844;DHT22;63793;57.632;18.292;2023-07-16T09:54:19;19.20;99.90
37844;DHT22;63793;57.632;18.292;2023-07-16T09:56:57;19.10;99.90
37844;DHT22;63793;57.632;18.292;2023-07-16T09:59:29;19.00;99.90
37844;DHT22;63793;57.632;18.292;2023-07-16T10:01:56;19.00;99.90
37844;DHT22;63793;57.632;18.292;2023-07-16T10:04:24;18.90;99.90
37844;DHT22;63793;57.632;18.292;2023-07-16T10:06:58;18.80;99.90
37844;DHT22;63793;57.632;18.292;2023-07-16T10:09:40;18.80;99.90
37844;DHT22;63793;57.632;18.292;2023-07-16T10:14:44;18.60;99.90
37844;DHT22;63793;57.632;18.292;2023-07-16T10:22:45;18.50;99.90
37844;DHT22;63793;57.632;18.292;2023-07-16T10:27:46;18.50;99.90
37844;DHT22;63793;57.632;18.292;2023-07-16T10:30:14;18.50;99.90
37844;DHT22;63793;57.632;18.292;2023-07-16T10:32:41;18.40;99.90
37844;DHT22;63793;57.632;18.292;2023-07-16T10:35:09;18.40;99.90
37844;DHT22;63793;57.632;18.292;2023-07-16T10:37:37;18.30;99.90
37844;DHT22;63793;57.632;18.292;2023-07-16T10:40:05;18.30;99.90
37844;DHT22;63793;57.632;18.292;2023-07-16T10:42:32;18.30;99.90
37844;DHT22;63793;57.632;18.292;2023-07-16T10:45:01;18.30;99.90
37844;DHT22;63793;57.632;18.292;2023-07-16T10:47:35;18.30;99.90
37844;DHT22;63793;57.632;18.292;2023-07-16T10:50:07;18.30;99.90
37844;DHT22;63793;57.632;18.292;2023-07-16T10:52:35;18.30;99.90
37844;DHT22;63793;57.632;18.292;2023-07-16T10:55:03;18.50;99.90
37844;DHT22;63793;57.632;18.292;2023-07-16T10:57:30;18.60;99.90
37844;DHT22;63793;57.632;18.292;2023-07-16T10:59:58;18.80;99.90
37844;DHT22;63793;57.632;18.292;2023-07-16T11:02:26;18.90;99.90
37844;DHT22;63793;57.632;18.292;2023-07-16T11:04:53;19.00;99.90
37844;DHT22;63793;57.632;18.292;2023-07-16T11:07:21;19.10;99.90
37844;DHT22;63793;57.632;18.292;2023-07-16T11:09:53;19.20;99.90
37844;DHT22;63793;57.632;18.292;2023-07-16T11:12:22;19.40;99.90
37844;DHT22;63793;57.632;18.292;2023-07-16T11:14:53;19.40;99.90
37844;DHT22;63793;57.632;18.292;2023-07-16T11:17:23;19.70;99.90
37844;DHT22;63793;57.632;18.292;2023-07-16T11:19:53;20.00;99.90
37844;DHT22;63793;57.632;18.292;2023-07-16T11:22:24;19.90;99.90
37844;DHT22;63793;57.632;18.292;2023-07-16T11:24:51;20.10;99.90
37844;DHT22;63793;57.632;18.292;2023-07-16T11:29:53;20.50;99.90
37844;DHT22;63793;57.632;18.292;2023-07-16T11:32:31;20.70;99.90
37844;DHT22;63793;57.632;18.292;2023-07-16T11:34:59;20.80;99.90
37844;DHT22;63793;57.632;18.292;2023-07-16T11:37:28;21.10;99.90
37844;DHT22;63793;57.632;18.292;2023-07-16T11:40:00;21.20;99.90
37844;DHT22;63793;57.632;18.292;2023-07-16T11:42:33;21.40;99.90
37844;DHT22;63793;57.632;18.292;2023-07-16T11:45:00;21.40;99.90
37844;DHT22;63793;57.632;18.292;2023-07-16T11:47:27;21.30;99.90
37844;DHT22;63793;57.632;18.292;2023-07-16T11:49:55;21.50;99.90
37844;DHT22;63793;57.632;18.292;2023-07-16T11:52:27;21.60;99.90
37844;DHT22;63793;57.632;18.292;2023-07-16T11:54:57;21.70;99.90
37844;DHT22;63793;57.632;18.292;2023-07-16T11:57:27;21.80;99.90
37844;DHT22;63793;57.632;18.292;2023-07-16T11:59:55;21.90;99.90
37844;DHT22;63793;57.632;18.292;2023-07-16T12:02:22;22.20;99.90
37844;DHT22;63793;57.632;18.292;2023-07-16T12:04:49;22.10;99.90
37844;DHT22;63793;57.632;18.292;2023-07-16T12:07:35;22.00;99.90
37844;DHT22;63793;57.632;18.292;2023-07-16T12:10:05;22.10;99.90
37844;DHT22;63793;57.632;18.292;2023-07-16T12:12:33;22.30;99.90
37844;DHT22;63793;57.632;18.292;2023-07-16T12:15:08;22.40;99.90
37844;DHT22;63793;57.632;18.292;2023-07-16T12:17:36;22.60;99.90
37844;DHT22;63793;57.632;18.292;2023-07-16T12:20:03;22.80;99.90
37844;DHT22;63793;57.632;18.292;2023-07-16T12:22:31;22.80;99.90
37844;DHT22;63793;57.632;18.292;2023-07-16T12:24:58;22.90;99.90
37844;DHT22;63793;57.632;18.292;2023-07-16T12:27:25;23.00;99.90
37844;DHT22;63793;57.632;18.292;2023-07-16T12:29:52;23.10;99.90
37844;DHT22;63793;57.632;18.292;2023-07-16T12:32:19;23.10;99.90
37844;DHT22;63793;57.632;18.292;2023-07-16T12:34:47;23.00;99.90
37844;DHT22;63793;57.632;18.292;2023-07-16T12:37:14;23.00;99.90
37844;DHT22;63793;57.632;18.292;2023-07-16T12:39:41;23.20;99.90
37844;DHT22;63793;57.632;18.292;2023-07-16T12:42:07;23.30;99.90
37844;DHT22;63793;57.632;18.292;2023-07-16T12:44:34;23.20;99.90
37844;DHT22;63793;57.632;18.292;2023-07-16T12:47:01;23.40;99.90
37844;DHT22;63793;57.632;18.292;2023-07-16T12:49:29;23.40;99.90
37844;DHT22;63793;57.632;18.292;2023-07-16T12:51:55;23.50;99.90
37844;DHT22;63793;57.632;18.292;2023-07-16T12:54:22;23.60;99.90
37844;DHT22;63793;57.632;18.292;2023-07-16T12:56:50;23.80;99.90
37844;DHT22;63793;57.632;18.292;2023-07-16T12:59:17;23.80;99.90
37844;DHT22;63793;57.632;18.292;2023-07-16T13:01:43;23.50;99.90
37844;DHT22;63793;57.632;18.292;2023-07-16T13:04:10;23.60;99.90
37844;DHT22;63793;57.632;18.292;2023-07-16T13:06:37;23.60;99.90
37844;DHT22;63793;57.632;18.292;2023-07-16T13:09:05;23.40;99.90
37844;DHT22;63793;57.632;18.292;2023-07-16T13:11:32;23.70;99.90
37844;DHT22;63793;57.632;18.292;2023-07-16T13:13:59;23.80;99.90
37844;DHT22;63793;57.632;18.292;2023-07-16T13:16:26;23.80;99.90
37844;DHT22;63793;57.632;18.292;2023-07-16T13:18:53;23.80;99.90
37844;DHT22;63793;57.632;18.292;2023-07-16T13:21:20;23.70;99.90
37844;DHT22;63793;57.632;18.292;2023-07-16T13:23:47;23.70;99.90
37844;DHT22;63793;57.632;18.292;2023-07-16T13:26:14;23.50;99.90
37844;DHT22;63793;57.632;18.292;2023-07-16T13:28:41;23.50;99.90
37844;DHT22;63793;57.632;18.292;2023-07-16T13:31:08;23.70;99.90
37844;DHT22;63793;57.632;18.292;2023-07-16T13:33:35;23.80;99.90
37844;DHT22;63793;57.632;18.292;2023-07-16T13:36:02;23.70;99.90
37844;DHT22;63793;57.632;18.292;2023-07-16T13:38:31;23.80;99.90
37844;DHT22;63793;57.632;18.292;2023-07-16T13:40:58;24.00;99.90
37844;DHT22;63793;57.632;18.292;2023-07-16T13:43:25;23.90;99.90
37844;DHT22;63793;57.632;18.292;2023-07-16T13:45:52;23.80;99.90
37844;DHT22;63793;57.632;18.292;2023-07-16T13:48:19;23.90;99.90
37844;DHT22;63793;57.632;18.292;2023-07-16T13:50:45;24.10;99.90
37844;DHT22;63793;57.632;18.292;2023-07-16T13:53:12;24.10;99.90
37844;DHT22;63793;57.632;18.292;2023-07-16T13:55:39;24.10;99.90
37844;DHT22;63793;57.632;18.292;2023-07-16T13:58:06;24.10;99.90
37844;DHT22;63793;57.632;18.292;2023-07-16T14:00:33;24.20;99.90
37844;DHT22;63793;57.632;18.292;2023-07-16T14:03:00;24.20;99.90
37844;DHT22;63793;57.632;18.292;2023-07-16T14:05:27;24.20;99.90
37844;DHT22;63793;57.632;18.292;2023-07-16T14:07:54;24.10;99.90
37844;DHT22;63793;57.632;18.292;2023-07-16T14:10:21;24.00;99.90
37844;DHT22;63793;57.632;18.292;2023-07-16T14:12:48;24.10;99.90
37844;DHT22;63793;57.632;18.292;2023-07-16T14:15:16;24.30;99.90
37844;DHT22;63793;57.632;18.292;2023-07-16T14:17:45;24.60;99.90
37844;DHT22;63793;57.632;18.292;2023-07-16T14:20:11;24.60;99.90
37844;DHT22;63793;57.632;18.292;2023-07-16T14:22:38;24.70;99.90
37844;DHT22;63793;57.632;18.292;2023-07-16T14:25:06;24.80;99.90
37844;DHT22;63793;57.632;18.292;2023-07-16T14:27:32;25.00;99.90
37844;DHT22;63793;57.632;18.292;2023-07-16T14:29:59;25.00;99.90
37844;DHT22;63793;57.632;18.292;2023-07-16T14:32:33;25.00;99.90
37844;DHT22;63793;57.632;18.292;2023-07-16T14:35:00;25.00;99.90
37844;DHT22;63793;57.632;18.292;2023-07-16T14:37:27;25.00;99.90
37844;DHT22;63793;57.632;18.292;2023-07-16T14:39:54;25.00;99.90
37844;DHT22;63793;57.632;18.292;2023-07-16T14:42:21;25.20;99.90
37844;DHT22;63793;57.632;18.292;2023-07-16T14:44:48;25.20;99.90
37844;DHT22;63793;57.632;18.292;2023-07-16T14:47:15;25.40;99.90
37844;DHT22;63793;57.632;18.292;2023-07-16T14:49:43;25.60;99.90
37844;DHT22;63793;57.632;18.292;2023-07-16T14:52:10;25.60;99.90
37844;DHT22;63793;57.632;18.292;2023-07-16T14:54:37;25.60;99.90
37844;DHT22;63793;57.632;18.292;2023-07-16T14:57:04;25.60;99.90
37844;DHT22;63793;57.632;18.292;2023-07-16T14:59:31;25.60;99.90
37844;DHT22;63793;57.632;18.292;2023-07-16T15:01:58;25.90;99.90
37844;DHT22;63793;57.632;18.292;2023-07-16T15:04:25;25.70;99.90
37844;DHT22;63793;57.632;18.292;2023-07-16T15:06:52;25.70;99.40
37844;DHT22;63793;57.632;18.292;2023-07-16T15:09:19;25.60;99.60
37844;DHT22;63793;57.632;18.292;2023-07-16T15:11:46;25.50;99.20
37844;DHT22;63793;57.632;18.292;2023-07-16T15:14:13;25.60;99.60
37844;DHT22;63793;57.632;18.292;2023-07-16T15:16:40;25.90;99.40
37844;DHT22;63793;57.632;18.292;2023-07-16T15:19:07;25.90;99.40
37844;DHT22;63793;57.632;18.292;2023-07-16T15:21:38;26.00;99.80
37844;DHT22;63793;57.632;18.292;2023-07-16T15:24:05;26.20;99.90
37844;DHT22;63793;57.632;18.292;2023-07-16T15:26:33;26.10;99.00
37844;DHT22;63793;57.632;18.292;2023-07-16T15:28:59;26.20;99.20
37844;DHT22;63793;57.632;18.292;2023-07-16T15:31:26;26.50;99.30
37844;DHT22;63793;57.632;18.292;2023-07-16T15:33:55;26.60;98.50
37844;DHT22;63793;57.632;18.292;2023-07-16T15:36:23;26.40;98.90
37844;DHT22;63793;57.632;18.292;2023-07-16T15:38:50;26.20;98.60
37844;DHT22;63793;57.632;18.292;2023-07-16T15:41:17;26.20;98.60